Time;durP1;ratioP1;P1;durP2;ratioP2;P2;SDS_P1;SDS_P2;PMS_P1;PMS_P2;Temp;Humidity;BMP_temperature;BMP_pressure;BME280_temperature;BME280_humidity;BME280_pressure;Samples;Min_cycle;Max_cycle;Signal;HPM_P1;HPM_P2
2023/10/17 00:02:27;;;;;;;3.92;1.05;;;6.50;99.90;;;;;;5115577;28;20020;-73
2023/10/17 00:04:53;;;;;;;3.60;0.88;;;6.50;99.90;;;;;;5115401;28;20050;-75
2023/10/17 00:07:21;;;;;;;4.82;1.20;;;6.50;99.90;;;;;;5097223;28;20023;-75
2023/10/17 00:09:48;;;;;;;6.63;1.25;;;6.50;99.90;;;;;;5097236;28;20028;-74
2023/10/17 00:14:57;;;;;;;5.57;1.50;;;6.50;99.90;;;;;;5115511;28;20030;-74
2023/10/17 00:17:23;;;;;;;4.15;1.20;;;6.50;99.90;;;;;;5097104;28;20101;-75
2023/10/17 00:19:49;;;;;;;4.18;1.98;;;6.50;99.90;;;;;;5097013;28;20039;-75
2023/10/17 00:22:23;;;;;;;3.53;1.40;;;6.40;99.90;;;;;;5096778;28;20023;-75
2023/10/17 00:24:55;;;;;;;4.55;1.23;;;6.50;99.90;;;;;;5115198;28;20114;-75
2023/10/17 00:27:22;;;;;;;10.27;1.45;;;6.40;99.90;;;;;;5115125;28;20058;-74
2023/10/17 00:29:51;;;;;;;2.88;1.20;;;6.40;99.90;;;;;;5095920;28;20039;-74
2023/10/17 00:32:16;;;;;;;3.78;0.95;;;6.40;99.90;;;;;;5114916;28;20559;-75
2023/10/17 00:34:43;;;;;;;6.70;1.92;;;6.50;99.90;;;;;;5114836;28;20024;-74
2023/10/17 00:37:11;;;;;;;6.45;1.20;;;6.50;99.90;;;;;;5114925;28;20387;-74
2023/10/17 00:39:38;;;;;;;1.92;1.00;;;6.50;99.90;;;;;;5114709;28;20145;-76
2023/10/17 00:42:29;;;;;;;4.38;0.98;;;6.60;99.90;;;;;;5114815;28;20027;-76
2023/10/17 00:44:55;;;;;;;4.50;1.10;;;6.50;99.90;;;;;;5096613;28;20024;-76
2023/10/17 00:47:22;;;;;;;5.03;0.98;;;6.50;99.90;;;;;;5114637;28;20035;-76
2023/10/17 00:49:50;;;;;;;2.83;1.20;;;6.50;99.90;;;;;;5114563;28;20027;-76
2023/10/17 00:52:34;;;;;;;5.07;1.50;;;6.50;99.90;;;;;;5096238;28;20023;-76
2023/10/17 00:55:10;;;;;;;5.70;1.38;;;6.50;99.90;;;;;;5114933;28;20020;-76
2023/10/17 00:57:44;;;;;;;5.95;0.80;;;;;;;;;;5114492;28;20019;-76
2023/10/17 01:00:58;;;;;;;5.35;1.73;;;6.40;99.90;;;;;;5096216;28;20487;-76
2023/10/17 01:03:05;;;;;;;2.80;0.82;;;;;;;;;;5104730;28;20071;-76
2023/10/17 01:08:51;;;;;;;6.15;1.30;;;6.40;99.90;;;;;;5052230;28;20090;-74
2023/10/17 01:11:30;;;;;;;5.15;1.00;;;;;;;;;;5087603;28;20122;-74
2023/10/17 01:13:57;;;;;;;10.15;1.10;;;6.40;99.90;;;;;;5114659;28;20480;-74
2023/10/17 01:16:33;;;;;;;4.25;0.77;;;6.40;99.90;;;;;;5114018;28;20384;-74
2023/10/17 01:19:04;;;;;;;3.60;1.10;;;6.30;99.90;;;;;;5095955;28;20030;-74
2023/10/17 01:21:32;;;;;;;10.63;1.00;;;6.40;99.90;;;;;;5096014;28;20077;-74
2023/10/17 01:23:57;;;;;;;3.20;0.60;;;6.30;99.90;;;;;;5114007;28;20016;-74
2023/10/17 01:26:26;;;;;;;2.60;0.65;;;6.30;99.90;;;;;;5114182;28;20447;-74
2023/10/17 01:28:52;;;;;;;;;;;6.30;99.90;;;;;;5096335;28;20036;-74
2023/10/17 01:31:24;;;;;;;2.40;1.42;;;6.30;99.90;;;;;;5114158;28;20351;-74
2023/10/17 01:34:00;;;;;;;2.28;0.47;;;6.30;99.90;;;;;;5112759;28;20062;-74
2023/10/17 01:36:26;;;;;;;4.38;0.65;;;6.30;99.90;;;;;;5114047;28;20045;-74
2023/10/17 01:38:55;;;;;;;5.55;0.47;;;;;;;;;;5095760;28;20536;-74
2023/10/17 01:41:20;;;;;;;3.30;0.70;;;6.30;99.90;;;;;;5113820;28;20020;-74
2023/10/17 01:43:47;;;;;;;6.72;1.13;;;6.30;99.90;;;;;;5114362;28;20083;-74
2023/10/17 01:46:21;;;;;;;7.75;0.73;;;6.30;99.90;;;;;;5113666;28;20475;-74
2023/10/17 01:49:00;;;;;;;4.57;0.93;;;6.30;99.90;;;;;;5113788;28;20024;-74
2023/10/17 01:51:26;;;;;;;;;;;7.10;99.90;;;;;;5114269;28;20024;-74
2023/10/17 01:53:52;;;;;;;2.97;0.70;;;6.30;99.90;;;;;;5096010;28;19911;-75
2023/10/17 01:56:32;;;;;;;8.10;0.35;;;6.30;99.90;;;;;;5095430;28;20020;-75
2023/10/17 01:59:04;;;;;;;6.07;0.95;;;6.30;99.90;;;;;;5113919;28;20091;-75
2023/10/17 02:01:31;;;;;;;2.60;0.60;;;6.30;99.90;;;;;;5114275;28;20459;-75
2023/10/17 02:04:12;;;;;;;2.20;0.50;;;6.30;99.90;;;;;;5113661;28;20015;-75
2023/10/17 02:06:38;;;;;;;1.67;0.80;;;6.30;99.90;;;;;;5113579;28;20024;-75
2023/10/17 02:11:46;;;;;;;3.97;0.50;;;6.30;99.90;;;;;;5113700;28;20027;-75
2023/10/17 02:14:12;;;;;;;4.43;0.50;;;6.30;99.90;;;;;;5095320;28;20019;-75
2023/10/17 02:16:37;;;;;;;8.98;1.30;;;6.30;99.90;;;;;;5113517;28;20023;-74
2023/10/17 02:19:06;;;;;;;5.57;0.60;;;6.30;99.90;;;;;;5113480;28;20440;-75
2023/10/17 02:21:40;;;;;;;2.83;0.60;;;6.30;99.90;;;;;;5113605;28;20098;-75
2023/10/17 02:24:11;;;;;;;4.00;0.88;;;6.30;99.90;;;;;;5113454;28;20482;-75
2023/10/17 02:26:46;;;;;;;5.95;0.45;;;6.30;99.90;;;;;;5114077;28;20027;-75
2023/10/17 02:29:12;;;;;;;1.67;0.30;;;6.30;99.90;;;;;;5095251;28;20402;-75
2023/10/17 02:31:40;;;;;;;6.63;1.08;;;6.30;99.90;;;;;;5113218;28;20030;-75
2023/10/17 02:34:15;;;;;;;4.75;0.73;;;6.40;99.90;;;;;;5113400;28;20023;-75
2023/10/17 02:36:40;;;;;;;0.90;0.28;;;6.40;99.90;;;;;;5117694;28;20016;-75
2023/10/17 02:39:06;;;;;;;3.78;0.50;;;6.40;99.90;;;;;;5117181;28;20441;-75
2023/10/17 02:41:37;;;;;;;1.90;0.63;;;6.50;99.90;;;;;;5117212;28;20049;-75
2023/10/17 02:44:04;;;;;;;3.63;0.38;;;6.50;99.90;;;;;;5099737;28;20047;-75
2023/10/17 02:46:29;;;;;;;4.70;1.20;;;6.50;99.90;;;;;;5117029;28;20030;-75
2023/10/17 02:48:59;;;;;;;4.13;0.32;;;6.50;99.90;;;;;;5098776;28;20028;-75
2023/10/17 02:53:51;;;;;;;3.38;0.60;;;6.60;99.90;;;;;;5117200;28;20027;-75
2023/10/17 02:56:20;;;;;;;5.80;1.63;;;6.50;99.90;;;;;;5116805;28;20015;-75
2023/10/17 02:59:12;;;;;;;3.75;0.57;;;6.60;99.90;;;;;;5098536;28;20490;-75
2023/10/17 03:01:37;;;;;;;3.55;0.98;;;6.60;99.90;;;;;;5116296;28;20035;-75
2023/10/17 03:04:08;;;;;;;2.72;0.32;;;6.60;99.90;;;;;;5098696;28;20106;-75
2023/10/17 03:06:44;;;;;;;1.55;0.40;;;6.60;99.90;;;;;;5116738;28;20027;-75
2023/10/17 03:11:57;;;;;;;5.38;0.68;;;6.60;99.90;;;;;;5116917;28;20110;-75
2023/10/17 03:17:20;;;;;;;3.33;0.35;;;6.60;99.90;;;;;;5087441;28;20395;-75
2023/10/17 03:19:45;;;;;;;5.63;0.77;;;6.60;99.90;;;;;;5098212;28;20042;-75
2023/10/17 03:22:18;;;;;;;2.75;0.40;;;6.60;99.90;;;;;;5116449;28;20016;-75
2023/10/17 03:24:45;;;;;;;2.20;0.40;;;6.60;99.90;;;;;;5114620;28;20027;-75
2023/10/17 03:27:12;;;;;;;1.88;0.45;;;6.60;99.90;;;;;;5116474;28;20034;-75
2023/10/17 03:29:46;;;;;;;2.78;0.30;;;6.60;99.90;;;;;;5116673;28;20047;-75
2023/10/17 03:32:12;;;;;;;3.45;0.30;;;6.60;99.90;;;;;;5116333;28;20391;-75
2023/10/17 03:34:44;;;;;;;5.80;0.38;;;6.60;99.90;;;;;;5097880;28;20497;-75
2023/10/17 03:45:13;;;;;;;2.38;0.22;;;6.70;99.90;;;;;;5116247;28;20032;-75
2023/10/17 03:47:47;;;;;;;2.92;0.38;;;9.10;99.90;;;;;;5096534;28;20019;-75
2023/10/17 03:50:31;;;;;;;6.57;0.50;;;6.70;99.90;;;;;;5115849;28;20026;-75
2023/10/17 03:53:05;;;;;;;2.63;0.30;;;6.70;99.90;;;;;;5097602;28;20395;-75
2023/10/17 03:55:42;;;;;;;3.50;1.08;;;6.60;99.90;;;;;;5097409;28;20364;-75
2023/10/17 03:58:18;;;;;;;3.05;0.50;;;6.70;99.90;;;;;;5115848;28;20047;-75
2023/10/17 04:00:45;;;;;;;3.25;0.13;;;6.70;99.90;;;;;;5097425;28;20023;-75
2023/10/17 04:03:19;;;;;;;1.55;0.60;;;6.60;99.90;;;;;;5115691;28;20020;-75
2023/10/17 04:05:49;;;;;;;6.45;1.00;;;6.60;99.90;;;;;;5116222;28;20486;-75
2023/10/17 04:08:17;;;;;;;4.68;0.57;;;6.60;99.90;;;;;;5094738;28;20024;-75
2023/10/17 04:10:49;;;;;;;5.22;1.27;;;6.60;99.90;;;;;;5115602;28;20019;-75
2023/10/17 04:13:34;;;;;;;3.35;0.30;;;6.60;99.90;;;;;;5115422;28;20030;-75
2023/10/17 04:16:08;;;;;;;5.10;0.30;;;6.60;99.90;;;;;;5096772;28;20038;-75
2023/10/17 04:18:37;;;;;;;3.67;0.68;;;6.70;99.90;;;;;;5115948;28;20073;-75
2023/10/17 04:21:26;;;;;;;1.55;0.20;;;6.70;99.90;;;;;;5097001;28;20365;-75
2023/10/17 04:24:04;;;;;;;4.53;0.43;;;6.70;99.90;;;;;;5115168;28;20027;-75
2023/10/17 04:26:42;;;;;;;3.53;0.40;;;6.70;99.90;;;;;;5115433;28;20028;-75
2023/10/17 04:29:11;;;;;;;3.50;0.77;;;6.70;99.90;;;;;;5096829;28;20027;-75
2023/10/17 04:31:42;;;;;;;2.95;0.70;;;6.70;99.90;;;;;;5097047;28;20303;-75
2023/10/17 04:34:14;;;;;;;2.78;0.70;;;6.60;99.90;;;;;;5096766;28;20023;-75
2023/10/17 04:36:40;;;;;;;4.70;0.70;;;6.60;99.90;;;;;;5096715;28;20453;-73
2023/10/17 04:42:04;;;;;;;15.88;1.33;;;9.80;99.90;;;;;;5115638;28;20059;-73
2023/10/17 04:44:38;;;;;;;3.40;0.70;;;6.60;99.90;;;;;;5114561;28;20038;-73
2023/10/17 04:47:25;;;;;;;3.35;0.80;;;6.60;99.90;;;;;;5096418;28;20114;-73
2023/10/17 04:49:54;;;;;;;4.03;0.52;;;6.60;99.90;;;;;;5114595;28;20027;-73
2023/10/17 04:52:23;;;;;;;4.32;0.40;;;6.60;99.90;;;;;;5096074;28;20028;-73
2023/10/17 04:57:24;;;;;;;4.95;0.75;;;6.50;99.90;;;;;;5072189;28;20032;-73
2023/10/17 05:00:10;;;;;;;2.92;0.40;;;;;;;;;;5056005;28;20032;-78
2023/10/17 05:02:42;;;;;;;6.93;1.05;;;6.60;99.90;;;;;;5072186;28;20039;-77
2023/10/17 05:08:11;;;;;;;8.65;1.35;;;6.60;99.90;;;;;;5074362;28;20067;-78
2023/10/17 06:17:13;;;;;;;10.43;2.15;;;6.00;99.90;;;;;;5118579;28;20034;-78
2023/10/17 06:19:39;;;;;;;6.25;1.10;;;6.00;99.90;;;;;;5118321;28;20020;-78
2023/10/17 06:30:34;;;;;;;6.05;2.40;;;;;;;;;;5117496;28;20061;-78
2023/10/17 06:33:17;;;;;;;9.15;1.67;;;6.00;99.90;;;;;;5099169;28;20479;-77
2023/10/17 06:35:54;;;;;;;7.13;2.67;;;6.00;99.90;;;;;;5117425;28;20024;-78
2023/10/17 06:38:36;;;;;;;5.72;2.05;;;6.00;99.90;;;;;;5098975;28;20023;-77
2023/10/17 06:41:15;;;;;;;9.45;2.50;;;6.10;99.90;;;;;;5099083;28;20030;-78
2023/10/17 06:43:46;;;;;;;8.10;2.58;;;6.10;99.90;;;;;;5117175;28;20027;-78
2023/10/17 06:46:14;;;;;;;4.75;1.65;;;6.10;99.90;;;;;;5117143;28;20081;-78
2023/10/17 06:48:49;;;;;;;7.73;2.33;;;6.10;99.90;;;;;;5098973;28;20078;-78
2023/10/17 06:53:47;;;;;;;7.88;2.55;;;6.10;99.90;;;;;;5116949;28;20054;-78
2023/10/17 06:56:13;;;;;;;9.45;2.80;;;6.10;99.90;;;;;;5116813;28;20467;-78
2023/10/17 06:58:39;;;;;;;9.80;2.92;;;6.20;99.90;;;;;;5116883;28;20026;-78
2023/10/17 07:01:05;;;;;;;6.45;2.42;;;6.20;99.90;;;;;;5116847;28;20024;-78
2023/10/17 07:03:37;;;;;;;6.70;2.38;;;6.30;99.90;;;;;;5116728;28;20020;-78
2023/10/17 07:06:16;;;;;;;5.93;2.72;;;6.50;99.90;;;;;;5099676;28;20056;-78
2023/10/17 07:08:42;;;;;;;18.70;4.07;;;6.50;99.90;;;;;;5116772;28;20110;-76
2023/10/17 07:16:34;;;;;;;11.52;2.95;;;6.80;99.90;;;;;;5116838;28;20115;-74
2023/10/17 07:19:46;;;;;;;9.82;3.17;;;7.00;99.90;;;;;;5098309;28;20417;-74
2023/10/17 07:24:36;;;;;;;10.15;4.22;;;7.00;99.90;;;;;;5116790;28;20088;-75
2023/10/17 07:27:11;;;;;;;8.82;2.72;;;7.10;99.90;;;;;;5116299;28;20505;-74
2023/10/17 07:29:44;;;;;;;6.95;2.75;;;7.20;99.90;;;;;;5116326;28;20023;-73
2023/10/17 07:32:16;;;;;;;10.20;4.05;;;7.30;99.90;;;;;;5098105;28;20024;-75
2023/10/17 07:34:43;;;;;;;9.98;3.47;;;7.40;99.90;;;;;;5098012;28;20051;-76
2023/10/17 07:37:25;;;;;;;7.28;3.38;;;7.50;99.90;;;;;;5097889;28;20015;-76
2023/10/17 07:40:17;;;;;;;9.55;3.70;;;7.60;99.90;;;;;;5098091;28;20398;-75
2023/10/17 07:42:45;;;;;;;8.75;3.40;;;7.70;99.90;;;;;;5097913;28;20047;-76
2023/10/17 07:45:15;;;;;;;6.18;2.70;;;7.80;99.90;;;;;;5115918;28;20051;-76
2023/10/17 07:47:51;;;;;;;8.00;3.17;;;7.90;99.90;;;;;;5115997;28;20389;-76
2023/10/17 07:50:17;;;;;;;12.73;3.55;;;8.00;99.90;;;;;;5097668;28;20023;-74
2023/10/17 07:52:43;;;;;;;7.50;3.28;;;8.00;99.90;;;;;;5116199;28;20418;-74
2023/10/17 07:55:23;;;;;;;8.82;3.70;;;8.10;99.90;;;;;;5116515;28;20375;-74
2023/10/17 07:57:52;;;;;;;11.07;3.30;;;8.20;99.90;;;;;;5097873;28;20065;-74
2023/10/17 08:00:27;;;;;;;;;;;8.30;99.90;;;;;;5116481;28;20027;-74
2023/10/17 08:03:09;;;;;;;6.25;2.80;;;8.30;99.90;;;;;;5115805;28;20291;-73
2023/10/17 08:05:38;;;;;;;7.53;2.97;;;8.50;99.90;;;;;;5113470;28;20544;-73
2023/10/17 08:08:08;;;;;;;13.35;3.63;;;8.50;99.90;;;;;;5097465;28;20069;-73
2023/10/17 08:10:38;;;;;;;8.57;3.63;;;8.60;99.90;;;;;;5097593;28;20024;-73
2023/10/17 08:13:08;;;;;;;10.60;2.88;;;8.70;99.90;;;;;;5096064;28;20504;-73
2023/10/17 08:15:43;;;;;;;6.43;2.53;;;8.80;99.90;;;;;;5115382;28;20043;-73
2023/10/17 08:18:15;;;;;;;8.05;3.70;;;8.80;99.90;;;;;;5097845;28;20364;-73
2023/10/17 08:23:34;;;;;;;8.70;3.17;;;9.00;99.90;;;;;;5115320;28;20034;-73
2023/10/17 08:26:00;;;;;;;8.65;3.42;;;9.10;99.90;;;;;;5115790;28;20047;-73
2023/10/17 08:29:08;;;;;;;6.75;2.83;;;9.20;99.90;;;;;;5115040;28;20031;-73
2023/10/17 08:31:24;;;;;;;5.97;2.75;;;9.30;99.90;;;;;;5111827;28;20031;-73
2023/10/17 08:33:57;;;;;;;5.88;2.72;;;9.40;99.90;;;;;;5114313;28;20019;-73
2023/10/17 08:36:42;;;;;;;5.82;2.45;;;9.50;99.90;;;;;;5114918;28;20056;-73
2023/10/17 08:42:11;;;;;;;11.95;3.20;;;9.80;99.90;;;;;;5080899;28;20590;-73
2023/10/17 08:44:41;;;;;;;8.15;2.50;;;9.80;99.90;;;;;;5115286;28;20019;-73
2023/10/17 08:47:07;;;;;;;10.50;2.42;;;9.90;99.90;;;;;;5114734;28;20119;-73
2023/10/17 08:49:33;;;;;;;7.70;2.55;;;10.00;99.90;;;;;;5114667;28;20165;-73
2023/10/17 08:51:59;;;;;;;4.90;1.38;;;10.10;99.90;;;;;;5096452;28;20037;-73
2023/10/17 08:54:28;;;;;;;6.47;1.15;;;10.10;99.90;;;;;;5114688;28;20028;-73
2023/10/17 08:56:53;;;;;;;5.38;1.58;;;10.20;99.90;;;;;;5114590;28;20019;-74
2023/10/17 09:02:48;;;;;;;3.95;0.60;;;10.40;99.90;;;;;;5115591;28;20043;-73
2023/10/17 09:04:53;;;;;;;2.45;0.65;;;10.60;99.90;;;;;;5105847;28;20490;-73
2023/10/17 09:07:32;;;;;;;6.07;0.80;;;10.60;99.90;;;;;;5096428;28;20024;-74
2023/10/17 09:10:05;;;;;;;3.75;0.93;;;10.60;99.90;;;;;;5114316;28;20031;-74
2023/10/17 09:12:42;;;;;;;3.83;0.93;;;10.70;99.90;;;;;;5096112;28;20031;-73
2023/10/17 09:15:27;;;;;;;2.65;0.60;;;10.80;99.90;;;;;;5096073;28;20024;-74
2023/10/17 09:18:13;;;;;;;3.75;1.20;;;10.80;99.90;;;;;;5114191;28;20055;-73
2023/10/17 09:20:41;;;;;;;3.00;0.50;;;10.90;99.90;;;;;;5096073;28;20016;-73
2023/10/17 09:23:24;;;;;;;1.52;0.43;;;10.90;99.90;;;;;;5114346;28;20028;-73
2023/10/17 09:26:07;;;;;;;4.70;1.20;;;11.00;99.90;;;;;;5114531;28;20028;-73
2023/10/17 09:28:33;;;;;;;4.13;0.75;;;11.00;99.90;;;;;;5095881;28;20448;-76
2023/10/17 09:31:08;;;;;;;3.47;1.10;;;11.00;99.90;;;;;;5095722;28;20107;-76
2023/10/17 09:33:36;;;;;;;1.92;0.80;;;11.10;99.90;;;;;;5095665;28;20031;-77
2023/10/17 09:36:06;;;;;;;3.58;0.82;;;11.20;99.90;;;;;;5114066;28;20104;-76
2023/10/17 09:38:41;;;;;;;3.92;0.32;;;11.30;99.90;;;;;;5096065;28;20036;-76
2023/10/17 09:41:08;;;;;;;1.98;0.60;;;11.40;99.90;;;;;;5095874;28;20027;-76
2023/10/17 09:43:37;;;;;;;2.63;0.55;;;11.50;99.90;;;;;;5113902;28;20024;-76
2023/10/17 09:46:09;;;;;;;5.75;0.90;;;11.50;99.90;;;;;;5113584;28;20050;-76
2023/10/17 09:48:37;;;;;;;1.73;0.45;;;11.50;99.90;;;;;;5096008;28;20023;-76
2023/10/17 09:51:03;;;;;;;4.00;1.15;;;11.60;99.90;;;;;;5095640;28;20479;-77
2023/10/17 09:53:34;;;;;;;2.10;0.90;;;11.60;99.90;;;;;;5113696;28;20015;-77
2023/10/17 09:56:15;;;;;;;3.83;0.77;;;11.70;99.90;;;;;;5113613;28;20418;-77
2023/10/17 09:58:47;;;;;;;3.58;1.30;;;11.80;99.90;;;;;;5113794;28;20027;-76
2023/10/17 10:01:18;;;;;;;6.10;1.40;;;11.90;99.90;;;;;;5114321;28;20054;-76
2023/10/17 10:03:48;;;;;;;3.60;1.45;;;12.00;99.90;;;;;;5113637;28;20029;-77
2023/10/17 10:06:30;;;;;;;4.10;1.00;;;11.90;99.90;;;;;;5113512;28;20379;-76
2023/10/17 10:09:06;;;;;;;4.88;1.45;;;12.20;99.90;;;;;;5113398;28;20051;-76
2023/10/17 10:11:55;;;;;;;3.67;2.00;;;11.90;99.90;;;;;;5095314;28;20051;-76
2023/10/17 10:14:23;;;;;;;5.88;1.70;;;12.30;99.90;;;;;;5113476;28;20023;-76
2023/10/17 10:16:53;;;;;;;4.13;1.70;;;12.00;99.90;;;;;;5095300;28;20047;-76
2023/10/17 10:19:20;;;;;;;7.07;1.77;;;12.10;99.90;;;;;;5095199;28;20020;-75
2023/10/17 10:21:55;;;;;;;5.80;1.13;;;12.20;99.90;;;;;;5113437;28;20043;-75
2023/10/17 10:24:27;;;;;;;4.07;1.55;;;12.30;99.90;;;;;;5113330;28;20028;-75
2023/10/17 10:27:15;;;;;;;3.15;1.20;;;12.30;99.90;;;;;;5113208;28;20051;-75
2023/10/17 10:29:42;;;;;;;2.50;0.90;;;12.40;99.90;;;;;;5095036;28;20372;-75
2023/10/17 10:32:34;;;;;;;4.70;1.75;;;12.50;99.90;;;;;;5113283;28;20046;-74
2023/10/17 10:35:05;;;;;;;5.95;1.23;;;12.50;99.90;;;;;;5113210;28;20040;-74
2023/10/17 10:37:32;;;;;;;2.58;0.75;;;12.50;99.90;;;;;;5095068;28;20012;-74
2023/10/17 10:40:12;;;;;;;4.47;1.08;;;12.60;99.90;;;;;;5113742;28;20032;-74
2023/10/17 10:42:57;;;;;;;3.25;0.90;;;12.60;99.90;;;;;;5094938;28;20069;-74
2023/10/17 10:45:26;;;;;;;2.40;0.98;;;12.70;99.90;;;;;;5112886;28;20019;-74
2023/10/17 10:47:58;;;;;;;3.40;0.60;;;12.80;99.90;;;;;;5113721;28;20027;-74
2023/10/17 10:50:35;;;;;;;2.38;0.60;;;12.90;99.90;;;;;;5094712;28;20477;-73
2023/10/17 10:53:03;;;;;;;2.47;0.50;;;12.90;99.90;;;;;;5113024;28;20019;-74
2023/10/17 10:55:30;;;;;;;4.88;0.40;;;13.10;99.90;;;;;;5095271;28;20491;-74
2023/10/17 10:58:00;;;;;;;11.40;1.40;;;13.10;99.90;;;;;;5116756;28;20634;-75
2023/10/17 11:00:26;;;;;;;2.97;0.52;;;13.20;99.90;;;;;;5116643;28;20046;-75
2023/10/17 11:02:51;;;;;;;4.63;0.45;;;13.30;99.90;;;;;;5116867;28;20462;-74
2023/10/17 11:05:17;;;;;;;4.57;0.50;;;13.40;99.90;;;;;;5116579;28;20028;-75
2023/10/17 11:07:44;;;;;;;5.43;0.35;;;13.40;99.90;;;;;;5116658;28;20027;-75
2023/10/17 11:10:11;;;;;;;4.55;0.65;;;13.50;99.90;;;;;;5116952;28;20076;-72
2023/10/17 11:12:38;;;;;;;3.35;0.60;;;13.60;99.90;;;;;;5098423;28;20103;-72
2023/10/17 11:15:12;;;;;;;1.05;0.40;;;13.60;99.90;;;;;;5116332;28;20051;-72
2023/10/17 11:17:39;;;;;;;4.97;0.40;;;13.60;99.90;;;;;;5116420;28;20023;-72
2023/10/17 11:20:14;;;;;;;1.42;0.10;;;13.70;99.90;;;;;;5097937;28;20057;-74
2023/10/17 11:22:41;;;;;;;5.97;1.80;;;13.90;99.90;;;;;;5098085;28;20020;-75
2023/10/17 11:25:31;;;;;;;1.95;0.20;;;13.90;99.90;;;;;;5097883;28;20028;-74
2023/10/17 11:28:00;;;;;;;3.53;0.40;;;13.90;99.90;;;;;;5097975;28;20034;-74
2023/10/17 11:30:33;;;;;;;5.55;0.95;;;13.90;99.90;;;;;;5116062;28;20047;-74
2023/10/17 11:33:05;;;;;;;3.92;0.30;;;14.10;99.90;;;;;;5116627;28;20039;-74
2023/10/17 11:35:34;;;;;;;3.42;0.15;;;14.20;99.90;;;;;;5097724;28;20012;-74
2023/10/17 11:38:01;;;;;;;2.20;0.20;;;14.30;99.90;;;;;;5097662;28;20016;-74
2023/10/17 11:40:48;;;;;;;2.65;0.10;;;14.40;99.90;;;;;;5115927;28;20073;-74
2023/10/17 11:43:28;;;;;;;2.05;0.10;;;14.60;99.90;;;;;;5116479;28;20035;-74
2023/10/17 11:45:56;;;;;;;2.80;0.10;;;14.80;99.90;;;;;;5115774;28;20080;-74
2023/10/17 11:48:26;;;;;;;2.80;0.20;;;14.70;99.90;;;;;;5115785;28;20030;-74
2023/10/17 11:51:06;;;;;;;2.15;0.08;;;14.70;99.90;;;;;;5115792;28;20020;-74
2023/10/17 11:53:33;;;;;;;3.83;0.17;;;14.80;99.90;;;;;;5115670;28;20027;-74
2023/10/17 11:56:01;;;;;;;2.67;0.25;;;14.90;99.90;;;;;;5097287;28;20019;-74
2023/10/17 11:58:29;;;;;;;1.27;0.10;;;15.10;99.90;;;;;;5116130;28;20535;-75
2023/10/17 12:00:55;;;;;;;2.63;0.20;;;15.10;99.90;;;;;;5115555;28;20386;-75
2023/10/17 12:03:21;;;;;;;1.98;0.30;;;15.10;99.90;;;;;;5115508;28;20047;-75
2023/10/17 12:05:47;;;;;;;2.72;0.55;;;15.10;99.90;;;;;;5115381;28;20101;-75
2023/10/17 12:08:22;;;;;;;1.08;0.10;;;15.20;99.90;;;;;;5114188;28;20390;-75
2023/10/17 12:10:53;;;;;;;0.15;0.05;;;15.30;99.90;;;;;;5097125;28;20015;-75
2023/10/17 12:13:19;;;;;;;6.30;0.00;;;15.40;99.90;;;;;;5097086;28;20467;-75
2023/10/17 12:15:47;;;;;;;2.70;0.10;;;15.40;99.90;;;;;;5115204;28;20023;-75
2023/10/17 12:18:13;;;;;;;2.40;0.00;;;15.40;99.90;;;;;;5115180;28;20493;-75
2023/10/17 12:20:40;;;;;;;2.17;0.22;;;15.40;99.90;;;;;;5096914;28;20106;-75
2023/10/17 12:23:10;;;;;;;1.17;0.00;;;15.30;99.90;;;;;;5115086;28;20027;-75
2023/10/17 12:25:36;;;;;;;0.65;0.00;;;15.30;99.90;;;;;;5114970;28;20016;-75
2023/10/17 12:28:03;;;;;;;1.00;0.00;;;15.20;99.90;;;;;;5115056;28;20024;-75
2023/10/17 12:30:35;;;;;;;0.85;0.10;;;15.20;99.90;;;;;;5096622;28;20036;-75
2023/10/17 12:33:01;;;;;;;0.70;0.10;;;15.40;99.90;;;;;;5114956;28;20103;-75
2023/10/17 12:35:27;;;;;;;1.45;0.10;;;15.40;99.90;;;;;;5115328;28;20446;-75
2023/10/17 12:37:57;;;;;;;2.63;0.20;;;15.60;99.90;;;;;;5114769;28;20475;-75
2023/10/17 12:40:23;;;;;;;2.33;0.00;;;15.60;99.90;;;;;;5114731;28;20027;-75
2023/10/17 12:42:51;;;;;;;3.72;0.22;;;15.70;99.90;;;;;;5114726;28;20032;-75
2023/10/17 12:45:18;;;;;;;0.10;0.10;;;15.80;99.90;;;;;;5114431;28;20049;-75
2023/10/17 12:47:44;;;;;;;1.40;0.00;;;16.00;99.90;;;;;;5114563;28;20106;-75
2023/10/17 12:50:14;;;;;;;0.65;0.00;;;16.10;99.90;;;;;;5114458;28;20383;-75
2023/10/17 12:52:40;;;;;;;1.70;0.10;;;16.20;99.90;;;;;;5114545;28;20023;-75
2023/10/17 12:55:07;;;;;;;2.08;0.00;;;16.20;99.90;;;;;;5114453;28;20016;-75
2023/10/17 12:57:33;;;;;;;0.10;0.00;;;16.20;99.90;;;;;;5096105;28;20027;-75
2023/10/17 12:59:59;;;;;;;4.18;0.88;;;16.10;99.90;;;;;;5114403;28;20019;-74
2023/10/17 13:02:29;;;;;;;0.45;0.00;;;16.30;99.90;;;;;;5114332;28;20026;-75
2023/10/17 13:04:55;;;;;;;0.65;0.35;;;16.30;99.90;;;;;;5114196;28;20038;-75
2023/10/17 13:07:21;;;;;;;1.55;0.25;;;16.30;99.90;;;;;;5114326;28;20517;-75
2023/10/17 13:09:46;;;;;;;1.27;0.30;;;16.30;99.90;;;;;;5114122;28;20059;-75
2023/10/17 13:12:14;;;;;;;1.00;0.10;;;16.40;99.90;;;;;;5114153;28;20023;-75
2023/10/17 13:14:40;;;;;;;1.25;0.00;;;16.60;99.90;;;;;;5114107;28;20384;-75
2023/10/17 13:17:09;;;;;;;4.28;0.20;;;16.70;99.90;;;;;;5114022;28;20016;-75
2023/10/17 13:19:40;;;;;;;1.85;0.00;;;16.80;99.90;;;;;;5095510;28;20024;-75
2023/10/17 13:22:08;;;;;;;1.75;0.00;;;17.00;99.90;;;;;;5114613;28;20027;-75
2023/10/17 13:24:34;;;;;;;1.38;0.00;;;17.00;99.90;;;;;;5113997;28;20027;-75
2023/10/17 13:27:00;;;;;;;1.65;0.38;;;17.10;99.90;;;;;;5113886;28;20117;-75
2023/10/17 13:29:26;;;;;;;0.38;0.00;;;17.30;99.90;;;;;;5113881;28;20499;-75
2023/10/17 13:31:52;;;;;;;0.35;0.00;;;17.40;99.90;;;;;;5113907;28;20024;-75
2023/10/17 13:34:22;;;;;;;2.88;0.00;;;17.40;99.90;;;;;;5113831;28;20015;-75
2023/10/17 13:36:50;;;;;;;0.98;0.00;;;17.40;99.90;;;;;;5113793;28;20493;-75
2023/10/17 13:39:22;;;;;;;0.88;0.00;;;17.60;99.90;;;;;;5113798;28;20100;-75
2023/10/17 13:41:48;;;;;;;2.60;0.00;;;17.80;99.90;;;;;;5113800;28;20024;-75
2023/10/17 13:44:15;;;;;;;4.60;0.25;;;17.80;99.90;;;;;;5095509;28;20428;-75
2023/10/17 13:46:41;;;;;;;1.17;0.00;;;17.90;99.90;;;;;;5113576;28;20032;-75
2023/10/17 13:49:08;;;;;;;3.05;0.30;;;17.60;99.90;;;;;;5113572;28;20032;-75
2023/10/17 13:51:34;;;;;;;1.10;0.00;;;17.40;99.90;;;;;;5113947;28;20016;-75
2023/10/17 13:54:00;;;;;;;1.17;0.15;;;17.30;99.90;;;;;;5114141;28;20026;-75
2023/10/17 13:56:27;;;;;;;0.82;0.10;;;17.50;99.90;;;;;;5113456;28;20471;-75
2023/10/17 13:58:53;;;;;;;3.10;0.10;;;17.60;99.90;;;;;;5095248;28;20030;-75
2023/10/17 14:01:27;;;;;;;0.50;0.00;;;18.00;99.90;;;;;;5113536;28;20099;-75
2023/10/17 14:03:55;;;;;;;1.65;0.00;;;18.60;99.40;;;;;;5113588;28;20039;-75
2023/10/17 14:06:21;;;;;;;1.20;0.15;;;19.00;98.60;;;;;;5113441;28;20046;-75
2023/10/17 14:08:46;;;;;;;2.50;0.00;;;19.30;98.10;;;;;;5095078;28;20543;-75
2023/10/17 14:11:17;;;;;;;2.00;0.65;;;19.60;97.40;;;;;;5113603;28;20023;-75
2023/10/17 14:13:44;;;;;;;0.80;0.00;;;19.70;96.50;;;;;;5113995;28;20019;-75
2023/10/17 14:16:10;;;;;;;1.17;0.00;;;19.70;96.80;;;;;;5095032;28;20027;-75
2023/10/17 14:18:46;;;;;;;0.85;0.00;;;19.70;96.20;;;;;;5113880;28;20032;-75
2023/10/17 14:24:00;;;;;;;1.77;0.10;;;19.80;95.40;;;;;;5114168;28;20077;-75
2023/10/17 14:26:27;;;;;;;0.30;0.00;;;19.80;95.90;;;;;;5113162;28;20024;-75
2023/10/17 14:28:54;;;;;;;0.40;0.00;;;20.20;95.00;;;;;;5095002;28;20444;-75
2023/10/17 14:31:20;;;;;;;1.00;0.10;;;20.40;94.30;;;;;;5115266;28;20016;-75
2023/10/17 14:33:46;;;;;;;0.10;0.00;;;20.50;94.00;;;;;;5117216;28;20020;-75
2023/10/17 14:36:13;;;;;;;1.80;0.00;;;20.70;93.50;;;;;;5117148;28;20039;-75
2023/10/17 14:38:38;;;;;;;4.75;0.00;;;20.80;93.30;;;;;;5117126;28;20022;-75
2023/10/17 14:41:08;;;;;;;1.27;0.10;;;21.00;92.60;;;;;;5117159;28;20027;-75
2023/10/17 14:43:35;;;;;;;2.22;0.25;;;21.10;92.00;;;;;;5116991;28;20035;-75
2023/10/17 14:46:01;;;;;;;0.55;0.00;;;20.70;91.60;;;;;;5116873;28;20080;-75
2023/10/17 14:48:27;;;;;;;1.02;0.15;;;20.40;92.20;;;;;;5116861;28;20031;-75
2023/10/17 14:50:52;;;;;;;2.65;0.10;;;20.30;92.00;;;;;;5116947;28;20051;-75
2023/10/17 14:53:19;;;;;;;1.40;0.05;;;20.20;92.80;;;;;;5098532;28;20026;-75
2023/10/17 14:55:46;;;;;;;3.30;0.10;;;20.10;92.70;;;;;;5116697;28;20015;-75
2023/10/17 14:58:11;;;;;;;0.47;0.00;;;20.10;92.70;;;;;;5098475;28;20425;-75
2023/10/17 15:00:37;;;;;;;1.08;0.00;;;20.00;92.20;;;;;;5116777;28;20020;-75
2023/10/17 15:03:03;;;;;;;1.55;0.13;;;19.80;92.40;;;;;;5098455;28;20051;-75
2023/10/17 15:05:30;;;;;;;2.22;0.00;;;19.70;92.70;;;;;;5098343;28;20509;-75
2023/10/17 15:07:56;;;;;;;4.63;0.30;;;19.60;93.00;;;;;;5116576;28;20015;-75
2023/10/17 15:10:23;;;;;;;1.75;0.05;;;19.60;92.80;;;;;;5117010;28;20501;-75
2023/10/17 15:12:52;;;;;;;0.30;0.00;;;19.40;92.00;;;;;;5116836;28;20023;-75
2023/10/17 15:15:18;;;;;;;2.53;0.05;;;19.30;93.30;;;;;;5098110;28;20490;-75
2023/10/17 15:17:44;;;;;;;2.17;0.10;;;19.30;93.40;;;;;;5116471;28;20051;-75
2023/10/17 15:20:11;;;;;;;1.73;0.22;;;19.30;93.30;;;;;;5116340;28;20035;-75
2023/10/17 15:22:41;;;;;;;2.08;0.60;;;19.10;93.20;;;;;;5116280;28;20024;-75